createdAt,value
2022-10-02T00:02:03.253Z,16.98
2022-10-02T00:04:09.869Z,16.92
2022-10-02T00:06:21.999Z,16.85
2022-10-02T00:08:36.488Z,16.81
2022-10-02T00:11:09.471Z,16.91
2022-10-02T00:13:26.098Z,16.98
2022-10-02T00:15:31.376Z,16.85
2022-10-02T00:17:38.238Z,16.97
2022-10-02T00:19:39.974Z,16.97
2022-10-02T00:21:59.134Z,16.92
2022-10-02T00:24:03.622Z,16.82
2022-10-02T00:26:20.106Z,16.93
2022-10-02T00:28:35.633Z,16.91
2022-10-02T00:30:58.828Z,16.84
2022-10-02T00:33:09.112Z,16.78
2022-10-02T00:35:46.359Z,16.82
2022-10-02T00:37:57.014Z,16.85
2022-10-02T00:39:58.600Z,16.89
2022-10-02T00:42:48.455Z,16.86
2022-10-02T00:45:31.697Z,16.88
2022-10-02T00:47:46.203Z,16.82
2022-10-02T00:50:31.826Z,16.75
2022-10-02T00:52:51.913Z,16.82
2022-10-02T00:54:53.478Z,16.90
2022-10-02T00:57:19.185Z,16.85
2022-10-02T00:59:50.341Z,16.78
2022-10-02T01:02:02.908Z,16.78
2022-10-02T01:04:11.528Z,16.91
2022-10-02T01:06:13.346Z,16.92
2022-10-02T01:08:16.894Z,16.85
2022-10-02T01:10:19.304Z,16.90
2022-10-02T01:12:22.682Z,16.78
2022-10-02T01:14:39.123Z,16.83
2022-10-02T01:16:42.621Z,16.83
2022-10-02T01:18:48.790Z,16.80
2022-10-02T01:21:02.413Z,16.70
2022-10-02T01:23:32.247Z,16.71
2022-10-02T01:25:34.028Z,16.72
2022-10-02T01:27:39.149Z,16.73
2022-10-02T01:29:44.208Z,16.76
2022-10-02T01:31:45.973Z,16.72
2022-10-02T01:33:49.587Z,16.66
2022-10-02T01:35:51.499Z,16.72
2022-10-02T01:37:55.323Z,16.61
2022-10-02T01:40:06.899Z,16.62
2022-10-02T01:42:08.584Z,16.63
2022-10-02T01:44:11.793Z,16.68
2022-10-02T01:46:48.863Z,16.59
2022-10-02T01:49:01.134Z,16.56
2022-10-02T01:51:27.441Z,16.54
2022-10-02T01:54:16.207Z,16.53
2022-10-02T01:56:38.091Z,16.37
2022-10-02T01:58:48.453Z,16.43
2022-10-02T02:01:18.457Z,16.45
2022-10-02T02:03:39.993Z,16.55
2022-10-02T02:05:58.498Z,16.43
2022-10-02T02:08:09.695Z,16.37
2022-10-02T02:10:34.327Z,16.40
2022-10-02T02:12:57.767Z,16.42
2022-10-02T02:15:07.536Z,16.40
2022-10-02T02:17:18.361Z,16.34
2022-10-02T02:19:28.953Z,16.40
2022-10-02T02:21:43.018Z,16.39
2022-10-02T02:23:46.390Z,16.43
2022-10-02T02:25:54.412Z,16.47
2022-10-02T02:27:59.715Z,16.45
2022-10-02T02:30:09.367Z,16.49
2022-10-02T02:32:23.410Z,16.52
2022-10-02T02:34:36.993Z,16.49
2022-10-02T02:36:42.933Z,16.40
2022-10-02T02:38:53.134Z,16.49
2022-10-02T02:41:09.189Z,16.49
2022-10-02T02:43:22.087Z,16.44
2022-10-02T02:45:27.385Z,16.30
2022-10-02T02:47:45.310Z,16.39
2022-10-02T02:50:11.483Z,16.42
2022-10-02T02:52:27.889Z,16.43
2022-10-02T02:54:38.967Z,16.51
2022-10-02T02:56:42.767Z,16.47
2022-10-02T02:58:53.327Z,16.45
2022-10-02T03:00:55.782Z,16.51
2022-10-02T03:02:58.525Z,16.35
2022-10-02T03:05:00.209Z,16.41
2022-10-02T03:07:05.325Z,16.44
2022-10-02T03:09:13.647Z,16.45
2022-10-02T03:11:21.300Z,16.43
2022-10-02T03:13:35.912Z,16.46
2022-10-02T03:16:11.848Z,16.51
2022-10-02T03:18:25.961Z,16.55
2022-10-02T03:20:52.255Z,16.41
2022-10-02T03:23:13.628Z,16.49
2022-10-02T03:25:34.079Z,16.49
2022-10-02T03:27:51.528Z,16.36
2022-10-02T03:30:02.931Z,16.40
2022-10-02T03:32:18.069Z,16.31
2022-10-02T03:34:20.187Z,16.36
2022-10-02T03:36:30.493Z,16.20
2022-10-02T03:38:33.941Z,16.27
2022-10-02T03:40:35.779Z,16.31
2022-10-02T03:42:37.598Z,16.28
2022-10-02T03:44:39.369Z,16.33
2022-10-02T03:46:41.108Z,16.32
2022-10-02T03:48:42.812Z,16.28
2022-10-02T03:50:45.045Z,16.39
2022-10-02T03:52:49.160Z,16.38
2022-10-02T03:54:57.574Z,16.42
2022-10-02T03:57:04.957Z,16.38
2022-10-02T03:59:15.078Z,16.35
2022-10-02T04:01:39.701Z,16.40
2022-10-02T04:03:46.281Z,16.48
2022-10-02T04:06:11.020Z,16.49
2022-10-02T04:08:24.192Z,16.53
2022-10-02T04:10:29.960Z,16.53
2022-10-02T04:12:41.246Z,16.50
2022-10-02T04:14:54.295Z,16.48
2022-10-02T04:17:06.014Z,16.42
2022-10-02T04:19:17.513Z,16.50
2022-10-02T04:21:32.424Z,16.50
2022-10-02T04:23:39.811Z,16.55
2022-10-02T04:25:49.592Z,16.53
2022-10-02T04:27:56.958Z,16.52
2022-10-02T04:30:04.400Z,16.53
2022-10-02T04:32:27.563Z,16.59
2022-10-02T04:34:29.174Z,16.44
2022-10-02T04:37:01.879Z,16.47
2022-10-02T04:39:30.110Z,16.48
2022-10-02T04:41:49.402Z,16.52
2022-10-02T04:44:23.341Z,16.50
2022-10-02T04:46:27.783Z,16.42
2022-10-02T04:48:51.148Z,16.41
2022-10-02T04:51:29.993Z,16.48
2022-10-02T04:53:43.507Z,16.48
2022-10-02T04:56:20.180Z,16.51
2022-10-02T04:58:32.555Z,16.50
2022-10-02T05:00:49.062Z,16.49
2022-10-02T05:03:10.682Z,16.45
2022-10-02T05:05:38.907Z,16.33
2022-10-02T05:08:22.364Z,16.46
2022-10-02T05:10:41.964Z,16.40
2022-10-02T05:13:01.488Z,16.43
2022-10-02T05:15:21.681Z,16.40
2022-10-02T05:17:46.413Z,16.38
2022-10-02T05:20:09.717Z,16.32
2022-10-02T05:22:30.876Z,16.40
2022-10-02T05:24:35.704Z,16.41
2022-10-02T05:27:00.030Z,16.41
2022-10-02T05:29:15.358Z,16.42
2022-10-02T05:31:35.074Z,16.31
2022-10-02T05:33:53.060Z,16.36
2022-10-02T05:36:17.388Z,16.32
2022-10-02T05:38:27.831Z,16.27
2022-10-02T05:40:53.575Z,16.36
2022-10-02T05:43:19.423Z,16.41
2022-10-02T05:45:34.987Z,16.41
2022-10-02T05:47:42.768Z,16.36
2022-10-02T05:49:53.878Z,16.41
2022-10-02T05:52:11.726Z,16.45
2022-10-02T05:54:27.934Z,16.44
2022-10-02T05:56:46.719Z,16.45
2022-10-02T05:58:56.719Z,16.45
2022-10-02T06:01:24.498Z,16.45
2022-10-02T06:03:31.952Z,16.44
2022-10-02T06:05:55.347Z,16.47
2022-10-02T06:08:02.818Z,16.41
2022-10-02T06:10:13.356Z,16.48
2022-10-02T06:12:31.718Z,16.41
2022-10-02T06:14:41.173Z,16.45
2022-10-02T06:16:49.400Z,16.24
2022-10-02T06:18:59.630Z,16.34
2022-10-02T06:21:12.859Z,16.27
2022-10-02T06:23:43.403Z,16.27
2022-10-02T06:25:47.591Z,16.34
2022-10-02T06:28:21.533Z,16.32
2022-10-02T06:30:23.472Z,16.28
2022-10-02T06:32:39.252Z,16.27
2022-10-02T06:34:44.584Z,16.14
2022-10-02T06:37:26.235Z,16.20
2022-10-02T06:39:33.795Z,16.22
2022-10-02T06:41:48.145Z,16.28
2022-10-02T06:44:20.031Z,16.28
2022-10-02T06:46:27.799Z,16.19
2022-10-02T06:48:48.311Z,16.24
2022-10-02T06:51:04.848Z,16.27
2022-10-02T06:53:32.700Z,16.28
2022-10-02T06:56:02.684Z,16.33
2022-10-02T06:58:16.562Z,16.34
2022-10-02T07:00:21.382Z,16.33
2022-10-02T07:02:29.100Z,16.34
2022-10-02T07:04:46.549Z,16.38
2022-10-02T07:07:08.700Z,16.39
2022-10-02T07:09:32.083Z,16.39
2022-10-02T07:11:55.292Z,16.41
2022-10-02T07:14:14.453Z,16.37
2022-10-02T07:16:32.338Z,16.41
2022-10-02T07:18:52.988Z,16.45
2022-10-02T07:21:12.287Z,16.49
2022-10-02T07:23:31.416Z,16.50
2022-10-02T07:25:56.275Z,16.52
2022-10-02T07:28:25.565Z,16.54
2022-10-02T07:30:38.160Z,16.56
2022-10-02T07:32:55.354Z,16.59
2022-10-02T07:35:22.148Z,16.62
2022-10-02T07:37:35.652Z,16.58
2022-10-02T07:39:56.051Z,16.55
2022-10-02T07:42:25.165Z,16.59
2022-10-02T07:44:45.285Z,16.63
2022-10-02T07:47:16.959Z,16.64
2022-10-02T07:49:42.295Z,16.65
2022-10-02T07:51:53.871Z,16.68
2022-10-02T07:54:08.926Z,16.71
2022-10-02T07:56:20.198Z,16.71
2022-10-02T07:58:42.140Z,16.56
2022-10-02T08:00:49.063Z,16.56
2022-10-02T08:02:57.369Z,16.60
2022-10-02T08:05:02.619Z,16.63
2022-10-02T08:07:06.531Z,16.67
2022-10-02T08:09:36.627Z,16.69
2022-10-02T08:11:49.157Z,16.71
2022-10-02T08:14:07.672Z,16.75
2022-10-02T08:16:11.083Z,16.77
2022-10-02T08:18:45.589Z,16.74
2022-10-02T08:20:49.370Z,16.79
2022-10-02T08:22:56.182Z,16.81
2022-10-02T08:25:03.151Z,16.83
2022-10-02T08:27:34.463Z,16.85
2022-10-02T08:29:49.151Z,16.89
2022-10-02T08:31:54.580Z,16.92
2022-10-02T08:33:57.601Z,16.93
2022-10-02T08:36:18.503Z,16.89
2022-10-02T08:38:22.759Z,16.93
2022-10-02T08:40:46.882Z,16.91
2022-10-02T08:43:04.252Z,16.96
2022-10-02T08:45:34.164Z,16.97
2022-10-02T08:48:06.328Z,16.98
2022-10-02T08:50:31.154Z,17.04
2022-10-02T08:52:44.619Z,17.03
2022-10-02T08:55:01.069Z,17.07
2022-10-02T08:57:28.198Z,17.06
2022-10-02T09:00:05.296Z,17.09
2022-10-02T09:02:29.460Z,17.18
2022-10-02T09:05:02.235Z,17.24
2022-10-02T09:07:18.751Z,17.19
2022-10-02T09:09:58.866Z,17.23
2022-10-02T09:12:58.299Z,17.26
2022-10-02T09:15:13.918Z,17.24
2022-10-02T09:17:48.830Z,17.27
2022-10-02T09:20:44.517Z,17.34
2022-10-02T09:23:27.499Z,17.35
2022-10-02T09:25:55.665Z,17.35
2022-10-02T09:28:37.139Z,17.44
2022-10-02T09:30:39.508Z,17.50
2022-10-02T09:33:11.678Z,17.54
2022-10-02T09:35:45.704Z,17.54
2022-10-02T09:37:47.623Z,17.64
2022-10-02T09:40:08.907Z,17.71
2022-10-02T09:42:39.930Z,17.74
2022-10-02T09:44:46.106Z,17.76
2022-10-02T09:47:17.043Z,17.82
2022-10-02T09:49:42.713Z,17.83
2022-10-02T09:52:38.168Z,17.86
2022-10-02T09:54:57.434Z,17.85
2022-10-02T09:57:44.105Z,17.93
2022-10-02T09:59:48.445Z,17.92
2022-10-02T10:01:57.090Z,17.93
2022-10-02T10:04:04.407Z,17.97
2022-10-02T10:06:27.979Z,18.01
2022-10-02T10:09:01.308Z,18.05
2022-10-02T10:11:41.899Z,18.06
2022-10-02T10:14:21.496Z,18.11
2022-10-02T10:16:34.742Z,18.16
2022-10-02T10:19:05.530Z,18.25
2022-10-02T10:21:44.040Z,18.26
2022-10-02T10:24:06.983Z,18.32
2022-10-02T10:26:24.343Z,18.37
2022-10-02T10:28:53.584Z,18.37
2022-10-02T10:31:18.201Z,18.44
2022-10-02T10:33:52.071Z,18.41
2022-10-02T10:36:46.909Z,18.48
2022-10-02T10:39:01.255Z,18.50
2022-10-02T10:41:36.465Z,18.59
2022-10-02T10:43:59.673Z,18.65
2022-10-02T10:46:09.346Z,18.71
2022-10-02T10:48:36.883Z,18.64
2022-10-02T10:50:54.460Z,18.72
2022-10-02T10:53:13.410Z,18.73
2022-10-02T10:55:38.993Z,18.72
2022-10-02T10:57:46.639Z,18.75
2022-10-02T11:00:11.467Z,18.81
2022-10-02T11:02:55.163Z,18.86
2022-10-02T11:05:36.753Z,18.88
2022-10-02T11:08:13.532Z,18.95
2022-10-02T11:10:27.015Z,19.09
2022-10-02T11:12:39.212Z,19.25
2022-10-02T11:14:59.888Z,19.37
2022-10-02T11:17:01.474Z,19.56
2022-10-02T11:19:08.855Z,19.70
2022-10-02T11:21:19.352Z,19.88
2022-10-02T11:23:23.605Z,19.86
2022-10-02T11:25:46.690Z,19.99
2022-10-02T11:27:57.612Z,20.00
2022-10-02T11:30:12.207Z,19.94
2022-10-02T11:32:47.143Z,19.96
2022-10-02T11:35:17.102Z,20.05
2022-10-02T11:37:49.023Z,20.17
2022-10-02T11:40:11.901Z,20.29
2022-10-02T11:42:30.376Z,20.41
2022-10-02T11:45:09.302Z,20.53
2022-10-02T11:47:40.560Z,20.63
2022-10-02T11:49:59.163Z,20.81
2022-10-02T11:52:08.921Z,20.94
2022-10-02T11:54:25.275Z,21.00
2022-10-02T11:56:35.831Z,21.15
2022-10-02T11:58:55.982Z,21.25
2022-10-02T12:01:13.918Z,21.32
2022-10-02T12:03:46.457Z,21.39
2022-10-02T12:06:03.175Z,21.46
2022-10-02T12:08:10.732Z,21.56
2022-10-02T12:10:19.345Z,21.62
2022-10-02T12:12:41.653Z,21.72
2022-10-02T12:15:23.953Z,21.88
2022-10-02T12:18:13.161Z,21.95
2022-10-02T12:21:11.120Z,22.01
2022-10-02T12:23:51.924Z,22.13
2022-10-02T12:26:21.985Z,22.19
2022-10-02T12:28:26.480Z,22.37
2022-10-02T12:31:01.403Z,22.45
2022-10-02T12:33:22.543Z,22.60
2022-10-02T12:35:42.903Z,22.67
2022-10-02T12:38:06.295Z,22.69
2022-10-02T12:40:26.522Z,22.77
2022-10-02T12:43:00.348Z,22.82
2022-10-02T12:45:25.801Z,22.89
2022-10-02T12:47:33.160Z,22.92
2022-10-02T12:49:40.699Z,22.99
2022-10-02T12:52:03.337Z,23.04
2022-10-02T12:54:15.248Z,23.03
2022-10-02T12:56:37.740Z,23.05
2022-10-02T12:58:45.350Z,23.08
2022-10-02T13:01:30.753Z,23.06
2022-10-02T13:03:47.077Z,22.95
2022-10-02T13:06:07.104Z,23.03
2022-10-02T13:08:11.552Z,23.15
2022-10-02T13:10:31.004Z,23.15
2022-10-02T13:13:17.512Z,23.03
2022-10-02T13:15:29.410Z,23.07
2022-10-02T13:17:43.154Z,23.16
2022-10-02T13:20:05.193Z,23.18
2022-10-02T13:22:23.866Z,23.29
2022-10-02T13:24:56.386Z,23.31
2022-10-02T13:27:18.627Z,23.30
2022-10-02T13:29:29.396Z,23.32
2022-10-02T13:31:55.045Z,23.32
2022-10-02T13:34:05.591Z,23.14
2022-10-02T13:36:15.146Z,22.97
2022-10-02T13:38:45.499Z,22.81
2022-10-02T13:41:17.723Z,22.55
2022-10-02T13:43:19.389Z,22.35
2022-10-02T13:45:24.116Z,22.21
2022-10-02T13:47:44.143Z,22.13
2022-10-02T13:50:04.255Z,21.99
2022-10-02T13:52:32.265Z,21.88
2022-10-02T13:55:10.918Z,21.78
2022-10-02T13:57:37.346Z,21.60
2022-10-02T13:59:58.450Z,21.50
2022-10-02T14:02:55.166Z,21.50
2022-10-02T14:05:30.289Z,21.47
2022-10-02T14:08:09.004Z,21.36
2022-10-02T14:10:22.687Z,21.27
2022-10-02T14:12:46.152Z,21.21
2022-10-02T14:15:17.912Z,21.12
2022-10-02T14:17:25.199Z,21.07
2022-10-02T14:19:28.141Z,21.01
2022-10-02T14:21:48.460Z,20.91
2022-10-02T14:24:08.723Z,20.91
2022-10-02T14:26:25.658Z,21.07
2022-10-02T14:29:08.731Z,21.34
2022-10-02T14:31:24.655Z,21.61
2022-10-02T14:33:52.526Z,21.97
2022-10-02T14:36:09.824Z,22.31
2022-10-02T14:38:27.961Z,22.61
2022-10-02T14:40:42.761Z,22.76
2022-10-02T14:43:02.529Z,22.91
2022-10-02T14:45:36.293Z,23.01
2022-10-02T14:48:05.217Z,22.92
2022-10-02T14:50:21.992Z,22.74
2022-10-02T14:52:53.219Z,22.54
2022-10-02T14:55:21.131Z,22.33
2022-10-02T14:57:41.456Z,22.18
2022-10-02T15:00:13.836Z,22.16
2022-10-02T15:02:37.121Z,22.31
2022-10-02T15:04:53.971Z,22.48
2022-10-02T15:07:24.626Z,22.68
2022-10-02T15:09:32.337Z,22.82
2022-10-02T15:11:37.699Z,22.94
2022-10-02T15:13:58.153Z,23.12
2022-10-02T15:16:37.474Z,23.15
2022-10-02T15:18:50.927Z,23.20
2022-10-02T15:21:16.191Z,23.31
2022-10-02T15:23:32.820Z,23.37
2022-10-02T15:25:52.877Z,23.47
2022-10-02T15:28:35.781Z,23.55
2022-10-02T15:30:47.372Z,23.60
2022-10-02T15:33:43.644Z,23.64
2022-10-02T15:36:19.438Z,23.68
2022-10-02T15:38:36.113Z,23.60
2022-10-02T15:40:47.730Z,23.76
2022-10-02T15:42:58.677Z,23.72
2022-10-02T15:45:15.311Z,23.60
2022-10-02T15:47:25.766Z,23.49
2022-10-02T15:49:48.792Z,23.42
2022-10-02T15:52:00.811Z,23.36
2022-10-02T15:54:27.970Z,23.29
2022-10-02T15:57:01.017Z,23.17
2022-10-02T15:59:24.378Z,23.06
2022-10-02T16:01:26.307Z,22.91
2022-10-02T16:03:37.233Z,22.73
2022-10-02T16:05:53.399Z,22.62
2022-10-02T16:08:00.034Z,22.41
2022-10-02T16:10:20.576Z,22.27
2022-10-02T16:12:37.625Z,22.07
2022-10-02T16:15:02.617Z,21.94
2022-10-02T16:17:30.249Z,21.75
2022-10-02T16:19:40.787Z,21.62
2022-10-02T16:22:25.371Z,21.57
2022-10-02T16:24:52.114Z,21.44
2022-10-02T16:27:26.207Z,21.35
2022-10-02T16:29:43.771Z,21.25
2022-10-02T16:32:27.345Z,21.17
2022-10-02T16:34:58.623Z,21.03
2022-10-02T16:37:11.173Z,20.95
2022-10-02T16:39:31.890Z,20.87
2022-10-02T16:41:58.776Z,20.79
2022-10-02T16:44:38.366Z,20.66
2022-10-02T16:46:40.244Z,20.57
2022-10-02T16:48:53.900Z,20.54
2022-10-02T16:51:26.958Z,20.52
2022-10-02T16:53:33.928Z,20.39
2022-10-02T16:56:19.524Z,20.37
2022-10-02T16:59:11.424Z,20.31
2022-10-02T17:01:31.806Z,20.25
2022-10-02T17:04:07.021Z,20.19
2022-10-02T17:06:19.499Z,20.19
2022-10-02T17:08:45.700Z,20.17
2022-10-02T17:11:05.712Z,20.12
2022-10-02T17:13:11.642Z,20.08
2022-10-02T17:15:22.021Z,20.05
2022-10-02T17:17:37.076Z,19.98
2022-10-02T17:19:56.606Z,19.99
2022-10-02T17:22:26.887Z,19.93
2022-10-02T17:24:46.894Z,19.91
2022-10-02T17:27:09.596Z,19.84
2022-10-02T17:29:23.972Z,19.86
2022-10-02T17:31:36.599Z,19.82
2022-10-02T17:33:52.751Z,19.78
2022-10-02T17:36:05.466Z,19.77
2022-10-02T17:38:09.697Z,19.74
2022-10-02T17:40:24.905Z,19.67
2022-10-02T17:42:42.019Z,19.67
2022-10-02T17:44:52.854Z,19.62
2022-10-02T17:47:10.065Z,19.58
2022-10-02T17:49:14.813Z,19.53
2022-10-02T17:51:52.860Z,19.48
2022-10-02T17:54:25.785Z,19.45
2022-10-02T17:56:55.899Z,19.43
2022-10-02T17:59:21.147Z,19.39
2022-10-02T18:01:44.227Z,19.36
2022-10-02T18:04:12.859Z,19.32
2022-10-02T18:06:21.410Z,19.27
2022-10-02T18:08:25.462Z,19.22
2022-10-02T18:10:54.185Z,19.19
2022-10-02T18:13:31.469Z,19.17
2022-10-02T18:15:42.543Z,19.09
2022-10-02T18:18:08.361Z,19.07
2022-10-02T18:20:34.243Z,19.04
2022-10-02T18:22:46.435Z,18.97
2022-10-02T18:25:17.114Z,18.99
2022-10-02T18:27:55.915Z,18.95
2022-10-02T18:30:03.588Z,18.91
2022-10-02T18:32:48.110Z,18.90
2022-10-02T18:34:53.540Z,18.82
2022-10-02T18:37:28.082Z,18.78
2022-10-02T18:39:42.133Z,18.73
2022-10-02T18:41:56.212Z,18.67
2022-10-02T18:44:06.935Z,18.67
2022-10-02T18:46:17.637Z,18.63
2022-10-02T18:48:27.943Z,18.57
2022-10-02T18:50:57.038Z,18.51
2022-10-02T18:53:28.828Z,18.50
2022-10-02T18:55:39.610Z,18.45
2022-10-02T18:57:44.187Z,18.44
2022-10-02T19:00:18.471Z,18.43
2022-10-02T19:02:54.684Z,18.41
2022-10-02T19:05:26.166Z,18.38
2022-10-02T19:07:38.396Z,18.35
2022-10-02T19:09:41.626Z,18.31
2022-10-02T19:11:47.202Z,18.30
2022-10-02T19:13:49.238Z,18.27
2022-10-02T19:15:54.087Z,18.28
2022-10-02T19:18:07.674Z,18.26
2022-10-02T19:20:50.548Z,18.22
2022-10-02T19:22:52.780Z,18.21
2022-10-02T19:25:03.525Z,18.13
2022-10-02T19:27:07.246Z,18.13
2022-10-02T19:29:30.460Z,18.08
2022-10-02T19:31:39.221Z,18.08
2022-10-02T19:33:52.772Z,18.04
2022-10-02T19:35:54.542Z,18.05
2022-10-02T19:38:12.739Z,18.03
2022-10-02T19:40:32.076Z,18.01
2022-10-02T19:42:45.392Z,18.01
2022-10-02T19:44:51.742Z,17.95
2022-10-02T19:46:57.506Z,17.92
2022-10-02T19:49:01.823Z,17.90
2022-10-02T19:51:07.426Z,17.89
2022-10-02T19:53:23.132Z,17.86
2022-10-02T19:55:29.164Z,17.83
2022-10-02T19:57:40.377Z,17.82
2022-10-02T19:59:47.603Z,17.76
2022-10-02T20:01:52.484Z,17.71
2022-10-02T20:03:59.192Z,17.68
2022-10-02T20:06:08.747Z,17.67
2022-10-02T20:08:17.818Z,17.68
2022-10-02T20:10:29.964Z,17.66
2022-10-02T20:12:41.460Z,17.63
2022-10-02T20:14:47.347Z,17.58
2022-10-02T20:17:07.889Z,17.56
2022-10-02T20:19:25.808Z,17.52
2022-10-02T20:21:36.466Z,17.53
2022-10-02T20:23:42.070Z,17.48
2022-10-02T20:25:53.052Z,17.45
2022-10-02T20:28:02.595Z,17.43
2022-10-02T20:30:25.670Z,17.41
2022-10-02T20:32:42.128Z,17.37
2022-10-02T20:35:22.977Z,17.34
2022-10-02T20:37:29.550Z,17.31
2022-10-02T20:39:55.194Z,17.30
2022-10-02T20:42:20.539Z,17.27
2022-10-02T20:44:22.499Z,17.26
2022-10-02T20:46:24.174Z,17.25
2022-10-02T20:49:07.554Z,17.21
2022-10-02T20:51:16.720Z,17.20
2022-10-02T20:53:29.743Z,17.16
2022-10-02T20:55:37.373Z,17.14
2022-10-02T20:58:01.435Z,17.10
2022-10-02T21:00:15.860Z,17.07
2022-10-02T21:02:41.900Z,17.08
2022-10-02T21:05:17.263Z,17.03
2022-10-02T21:07:24.660Z,17.03
2022-10-02T21:09:47.979Z,17.01
2022-10-02T21:12:23.565Z,17.02
2022-10-02T21:14:37.228Z,17.01
2022-10-02T21:17:16.115Z,17.00
2022-10-02T21:19:48.344Z,16.96
2022-10-02T21:22:11.007Z,16.95
2022-10-02T21:24:33.791Z,16.93
2022-10-02T21:27:01.518Z,16.92
2022-10-02T21:29:12.063Z,16.90
2022-10-02T21:31:29.691Z,16.87
2022-10-02T21:33:41.943Z,16.85
2022-10-02T21:36:06.978Z,16.85
2022-10-02T21:38:33.307Z,16.83
2022-10-02T21:41:16.483Z,16.81
2022-10-02T21:44:04.638Z,16.74
2022-10-02T21:46:24.890Z,16.76
2022-10-02T21:48:35.507Z,16.71
2022-10-02T21:50:46.629Z,16.69
2022-10-02T21:53:13.421Z,16.68
2022-10-02T21:55:41.246Z,16.63
2022-10-02T21:57:58.095Z,16.60
2022-10-02T22:00:13.129Z,16.61
2022-10-02T22:02:44.405Z,16.58
2022-10-02T22:05:21.373Z,16.58
2022-10-02T22:07:31.388Z,16.57
2022-10-02T22:10:06.418Z,16.53
2022-10-02T22:12:27.613Z,16.51
2022-10-02T22:14:38.488Z,16.50
2022-10-02T22:16:57.146Z,16.48
2022-10-02T22:19:25.200Z,16.46
2022-10-02T22:21:45.384Z,16.43
2022-10-02T22:24:20.735Z,16.41
2022-10-02T22:26:48.629Z,16.36
2022-10-02T22:28:59.399Z,16.36
2022-10-02T22:31:07.002Z,16.34
2022-10-02T22:33:58.196Z,16.28
2022-10-02T22:36:11.588Z,16.24
2022-10-02T22:38:57.539Z,16.19
2022-10-02T22:41:11.590Z,16.18
2022-10-02T22:43:27.587Z,16.09
2022-10-02T22:46:05.437Z,16.10
2022-10-02T22:48:17.262Z,16.09
2022-10-02T22:50:27.850Z,16.05
2022-10-02T22:52:42.886Z,16.01
2022-10-02T22:55:00.442Z,16.00
2022-10-02T22:57:02.037Z,15.96
2022-10-02T22:59:14.744Z,15.93
2022-10-02T23:01:21.297Z,15.91
2022-10-02T23:03:31.710Z,15.84
2022-10-02T23:06:01.007Z,15.79
2022-10-02T23:08:22.241Z,15.78
2022-10-02T23:10:27.472Z,15.70
2022-10-02T23:12:41.326Z,15.67
2022-10-02T23:15:08.655Z,15.66
2022-10-02T23:17:44.174Z,15.64
2022-10-02T23:19:56.493Z,15.61
2022-10-02T23:22:31.348Z,15.59
2022-10-02T23:25:18.646Z,15.56
2022-10-02T23:27:34.700Z,15.54
2022-10-02T23:29:36.272Z,15.54
2022-10-02T23:32:03.942Z,15.59
2022-10-02T23:34:08.759Z,15.56
2022-10-02T23:36:26.480Z,15.52
2022-10-02T23:38:37.279Z,15.52
2022-10-02T23:41:16.219Z,15.49
2022-10-02T23:43:38.279Z,15.52
2022-10-02T23:45:42.364Z,15.47
2022-10-02T23:47:54.842Z,15.43
2022-10-02T23:49:58.821Z,15.37
2022-10-02T23:52:19.568Z,15.33
2022-10-02T23:54:43.346Z,15.29
2022-10-02T23:57:17.725Z,15.20
2022-10-02T23:59:44.209Z,15.15
